KNQI/NQI METAR and TAF weather

Enter ICAO airport designator
Station Type Date Time Source
KNQI METAR 2020/01/19 13:56 UTC NOAA

KNQI 191356Z AUTO 01014KT 10SM SCT036 09/01 A3041 RMK AO2 SLP293 T00940011 $


Station Type Date Time Source
KNQI Decoded METAR 2020/01/19 13:56 UTC NOAA

KINGSVILLE NAS, TX, United States (KNQI) 27-50N 097-81W 15M
Jan 19, 2020 - 08:56 AM EST / 2020.01.19 1356 UTC
Wind: from the N (010 degrees) at 16 MPH (14 KT):0
Visibility: 10 mile(s):0
Sky conditions: partly cloudy
Temperature: 48.9 F (9.4 C)
Dew Point: 34.0 F (1.1 C)
Relative Humidity: 56%
Pressure (altimeter): 30.41 in. Hg (1029 hPa)
ob: KNQI 191356Z AUTO 01014KT 10SM SCT036 09/01 A3041 RMK AO2 SLP293 T00940011
cycle: 14

Station Type Date Time Source
KNQI TAF 2020/01/19 10:15 UTC NOAA

TAF
AMD KNQI 1910/2007 36020G30KT 9999 OVC030 QNH3028INS
BECMG 1913/1915 35020G30KT 9999 SKC QNH3031INS
FM192100 03010KT 9999 SCT060 QNH3000INS AUTOMATED SENSOR METWATCH 1910 TIL 1921 T15/1921Z T07/2006Z
AMD 1012 FN00204

Example: see airport list